Time;durP1;ratioP1;P1;durP2;ratioP2;P2;SDS_P1;SDS_P2;PMS_P1;PMS_P2;Temp;Humidity;BMP_temperature;BMP_pressure;BME280_temperature;BME280_humidity;BME280_pressure;Samples;Min_cycle;Max_cycle;Signal;HPM_P1;HPM_P2
2022/03/05 00:01:48;;;;;;;;;;;22.60;32.70;;;;;;1587819;75;775;-68
2022/03/05 00:03:49;;;;;;;;;;;22.60;32.80;;;;;;1587879;75;784;-66
2022/03/05 00:05:51;;;;;;;;;;;22.70;32.80;;;;;;1587755;75;1935;-67
2022/03/05 00:07:53;;;;;;;;;;;22.60;32.80;;;;;;1584870;75;846;-67
2022/03/05 00:09:56;;;;;;;;;;;22.60;32.70;;;;;;1587860;75;806;-67
2022/03/05 00:11:58;;;;;;;;;;;22.70;32.90;;;;;;1587783;74;757;-70
2022/03/05 00:14:00;;;;;;;;;;;22.60;32.90;;;;;;1583645;75;766;-68
2022/03/05 00:16:02;;;;;;;;;;;22.70;32.80;;;;;;1585812;73;1199;-67
2022/03/05 00:18:04;;;;;;;;;;;22.60;32.90;;;;;;1587788;75;763;-68
2022/03/05 00:20:07;;;;;;;;;;;22.70;32.90;;;;;;1585492;75;854;-67
2022/03/05 00:22:09;;;;;;;;;;;22.60;32.90;;;;;;1587736;75;782;-67
2022/03/05 00:24:11;;;;;;;;;;;22.60;32.80;;;;;;1587833;75;780;-68
2022/03/05 00:26:13;;;;;;;;;;;22.70;32.90;;;;;;1587764;73;1939;-66
2022/03/05 00:28:15;;;;;;;;;;;22.70;33.00;;;;;;1581111;75;690;-67
2022/03/05 00:30:17;;;;;;;;;;;22.70;33.10;;;;;;1588027;75;792;-68
2022/03/05 00:32:19;;;;;;;;;;;22.70;33.00;;;;;;1583264;75;722;-67
2022/03/05 00:34:21;;;;;;;;;;;22.60;33.00;;;;;;1587887;75;745;-68
2022/03/05 00:36:22;;;;;;;;;;;22.60;33.00;;;;;;1587051;73;1166;-67
2022/03/05 00:38:24;;;;;;;;;;;22.70;33.20;;;;;;1585723;74;776;-65
2022/03/05 00:40:26;;;;;;;;;;;22.70;33.20;;;;;;1588041;75;723;-67
2022/03/05 00:42:29;;;;;;;;;;;22.70;33.10;;;;;;1588172;75;777;-67
2022/03/05 00:44:31;;;;;;;;;;;22.70;33.20;;;;;;1586171;75;720;-66
2022/03/05 00:46:32;;;;;;;;;;;22.70;33.20;;;;;;1587580;73;1929;-67
2022/03/05 00:48:34;;;;;;;;;;;22.70;33.20;;;;;;1587933;74;710;-67
2022/03/05 00:50:36;;;;;;;;;;;22.70;33.20;;;;;;1585476;75;748;-68
2022/03/05 00:52:38;;;;;;;;;;;22.70;33.10;;;;;;1588016;75;745;-67
2022/03/05 00:54:40;;;;;;;;;;;22.80;33.40;;;;;;1587980;75;828;-65
2022/03/05 00:56:42;;;;;;;;;;;22.80;33.20;;;;;;1587937;73;1127;-67
2022/03/05 00:58:44;;;;;;;;;;;22.70;33.30;;;;;;1579650;75;823;-67
2022/03/05 01:00:46;;;;;;;;;;;22.70;33.40;;;;;;1587993;75;758;-67
2022/03/05 01:02:48;;;;;;;;;;;22.80;33.30;;;;;;1587975;75;721;-67
2022/03/05 01:04:49;;;;;;;;;;;22.80;33.40;;;;;;1580857;75;759;-66
2022/03/05 01:06:51;;;;;;;;;;;22.70;33.50;;;;;;1584513;73;1939;-67
2022/03/05 01:08:53;;;;;;;;;;;22.70;33.50;;;;;;1588005;75;681;-69
2022/03/05 01:10:55;;;;;;;;;;;22.70;33.60;;;;;;1587937;75;769;-68
2022/03/05 01:12:57;;;;;;;;;;;22.70;33.50;;;;;;1587973;75;788;-66
2022/03/05 01:14:59;;;;;;;;;;;22.80;33.40;;;;;;1587953;74;701;-67
2022/03/05 01:17:01;;;;;;;;;;;22.70;33.50;;;;;;1578874;73;1190;-65
2022/03/05 01:19:02;;;;;;;;;;;22.80;33.50;;;;;;1587840;73;794;-66
2022/03/05 01:21:04;;;;;;;;;;;22.80;33.40;;;;;;1583888;75;715;-66
2022/03/05 01:23:06;;;;;;;;;;;22.80;33.40;;;;;;1587707;75;777;-67
2022/03/05 01:25:08;;;;;;;;;;;22.80;33.40;;;;;;1587817;73;740;-67
2022/03/05 01:27:10;;;;;;;;;;;22.80;33.40;;;;;;1587749;73;1945;-67
2022/03/05 01:29:12;;;;;;;;;;;22.80;33.40;;;;;;1588009;75;1101;-66
2022/03/05 01:31:14;;;;;;;;;;;22.80;33.50;;;;;;1583929;75;774;-66
2022/03/05 01:33:17;;;;;;;;;;;22.80;33.70;;;;;;1587995;75;797;-67
2022/03/05 01:35:19;;;;;;;;;;;22.80;33.60;;;;;;1587930;75;808;-67
2022/03/05 01:37:21;;;;;;;;;;;22.80;33.50;;;;;;1586847;73;1142;-69
2022/03/05 01:39:23;;;;;;;;;;;22.70;33.60;;;;;;1581019;75;723;-67
2022/03/05 01:41:25;;;;;;;;;;;22.80;33.70;;;;;;1584600;75;796;-67
2022/03/05 01:43:27;;;;;;;;;;;22.80;33.80;;;;;;1587814;75;695;-68
2022/03/05 01:45:30;;;;;;;;;;;22.80;33.80;;;;;;1587931;75;721;-67
2022/03/05 01:47:32;;;;;;;;;;;22.70;33.90;;;;;;1587869;73;1136;-66
2022/03/05 01:49:34;;;;;;;;;;;22.70;34.10;;;;;;1584227;75;693;-65
2022/03/05 01:51:36;;;;;;;;;;;22.80;34.10;;;;;;1587171;75;776;-67
2022/03/05 01:53:37;;;;;;;;;;;22.70;34.00;;;;;;1587901;75;814;-66
2022/03/05 01:55:39;;;;;;;;;;;22.80;33.90;;;;;;1587876;75;734;-69
2022/03/05 01:57:41;;;;;;;;;;;22.80;34.00;;;;;;1574924;73;2070;-66
2022/03/05 01:59:43;;;;;;;;;;;22.80;34.00;;;;;;1567565;76;734;-64
2022/03/05 02:01:45;;;;;;;;;;;22.80;33.90;;;;;;1567495;76;773;-62
2022/03/05 02:03:47;;;;;;;;;;;22.80;34.00;;;;;;1559178;76;685;-64
2022/03/05 02:05:49;;;;;;;;;;;22.80;34.00;;;;;;1563321;76;1912;-65
2022/03/05 02:07:51;;;;;;;;;;;22.80;34.10;;;;;;1565489;74;1224;-67
2022/03/05 02:09:52;;;;;;;;;;;22.80;34.10;;;;;;1563116;75;800;-65
2022/03/05 02:11:54;;;;;;;;;;;22.80;34.10;;;;;;1563117;76;766;-64
2022/03/05 02:13:56;;;;;;;;;;;22.80;34.10;;;;;;1563423;75;749;-64
2022/03/05 02:15:58;;;;;;;;;;;22.80;34.00;;;;;;1562909;76;684;-64
2022/03/05 02:18:00;;;;;;;;;;;22.80;34.10;;;;;;1567012;74;1135;-64
2022/03/05 02:20:02;;;;;;;;;;;22.80;34.00;;;;;;1563322;76;743;-64
2022/03/05 02:22:06;;;;;;;;;;;22.80;34.00;;;;;;1562774;76;773;-66
2022/03/05 02:24:07;;;;;;;;;;;22.90;34.10;;;;;;1563027;76;1442;-64
2022/03/05 02:26:09;;;;;;;;;;;22.90;34.20;;;;;;1548819;75;1931;-64
2022/03/05 02:28:11;;;;;;;;;;;22.90;34.30;;;;;;1562514;75;1177;-64
2022/03/05 02:30:13;;;;;;;;;;;22.90;34.20;;;;;;1566483;76;810;-64
2022/03/05 02:32:15;;;;;;;;;;;22.80;34.30;;;;;;1561892;75;710;-65
2022/03/05 02:34:17;;;;;;;;;;;22.80;34.40;;;;;;1563380;75;744;-62
2022/03/05 02:36:19;;;;;;;;;;;22.80;34.30;;;;;;1563260;76;716;-66
2022/03/05 02:38:22;;;;;;;;;;;22.80;34.40;;;;;;1564892;75;1103;-65
2022/03/05 02:40:24;;;;;;;;;;;22.80;34.50;;;;;;1563385;74;707;-65
2022/03/05 02:42:26;;;;;;;;;;;22.80;34.80;;;;;;1561362;76;786;-65
2022/03/05 02:44:28;;;;;;;;;;;22.80;35.00;;;;;;1563639;76;785;-64
2022/03/05 02:46:30;;;;;;;;;;;22.70;35.00;;;;;;1562184;76;1943;-64
2022/03/05 02:48:33;;;;;;;;;;;22.70;34.80;;;;;;1563487;75;729;-64
2022/03/05 02:50:35;;;;;;;;;;;22.80;34.80;;;;;;1560405;76;706;-63
2022/03/05 02:52:41;;;;;;;;;;;22.80;34.70;;;;;;1563455;75;692;-64
2022/03/05 02:54:43;;;;;;;;;;;22.80;34.90;;;;;;1560048;76;724;-63
2022/03/05 02:56:46;;;;;;;;;;;22.90;35.00;;;;;;1563220;75;1146;-62
2022/03/05 02:58:48;;;;;;;;;;;22.80;34.90;;;;;;1559539;75;743;-64
2022/03/05 03:00:50;;;;;;;;;;;22.90;35.00;;;;;;1555588;76;740;-65
2022/03/05 03:02:52;;;;;;;;;;;22.90;35.00;;;;;;1558748;75;794;-63
2022/03/05 03:04:54;;;;;;;;;;;22.90;35.00;;;;;;1558243;75;783;-64
2022/03/05 03:06:56;;;;;;;;;;;22.90;34.90;;;;;;1562528;75;1932;-64
2022/03/05 03:08:57;;;;;;;;;;;22.80;34.80;;;;;;1560803;76;686;-65
2022/03/05 03:11:00;;;;;;;;;;;22.90;34.70;;;;;;1556543;76;719;-63
2022/03/05 03:13:01;;;;;;;;;;;22.90;34.80;;;;;;1558672;75;663;-64
2022/03/05 03:15:04;;;;;;;;;;;22.90;34.70;;;;;;1558285;76;693;-65
2022/03/05 03:17:06;;;;;;;;;;;23.00;34.80;;;;;;1558790;75;1143;-66
2022/03/05 03:19:07;;;;;;;;;;;22.90;34.80;;;;;;1564946;75;693;-65
2022/03/05 03:21:09;;;;;;;;;;;22.90;34.80;;;;;;1557829;76;1106;-66
2022/03/05 03:23:11;;;;;;;;;;;22.90;35.00;;;;;;1558770;75;713;-68
2022/03/05 03:25:13;;;;;;;;;;;22.90;35.00;;;;;;1556975;76;734;-63
2022/03/05 03:27:15;;;;;;;;;;;23.00;35.00;;;;;;1558751;76;1947;-65
2022/03/05 03:29:17;;;;;;;;;;;22.90;35.00;;;;;;1560250;75;761;-65
2022/03/05 03:31:19;;;;;;;;;;;22.90;35.20;;;;;;1558025;76;771;-65
2022/03/05 03:33:20;;;;;;;;;;;22.90;35.20;;;;;;1558900;75;668;-65
2022/03/05 03:35:22;;;;;;;;;;;22.80;35.20;;;;;;1556667;76;777;-65
2022/03/05 03:37:28;;;;;;;;;;;22.80;35.30;;;;;;1558902;76;1142;-66
2022/03/05 03:39:28;;;;;;;;;;;22.90;35.60;;;;;;1557978;75;1780;-61
2022/03/05 03:41:30;;;;;;;;;;;22.80;35.50;;;;;;1558968;76;714;-65
2022/03/05 03:43:31;;;;;;;;;;;22.80;35.60;;;;;;1558810;75;768;-65
2022/03/05 03:45:33;;;;;;;;;;;22.80;35.80;;;;;;1556284;76;768;-65
2022/03/05 03:47:35;;;;;;;;;;;22.80;35.90;;;;;;1558767;75;1924;-65
2022/03/05 03:49:37;;;;;;;;;;;22.80;36.00;;;;;;1558590;76;782;-66
2022/03/05 03:51:39;;;;;;;;;;;22.80;36.00;;;;;;1558947;75;825;-66
2022/03/05 03:53:41;;;;;;;;;;;22.80;36.20;;;;;;1545972;75;753;-63
2022/03/05 03:55:43;;;;;;;;;;;22.80;36.50;;;;;;1558836;75;790;-65
2022/03/05 03:57:45;;;;;;;;;;;22.70;36.60;;;;;;1558701;76;1145;-64
2022/03/05 03:59:47;;;;;;;;;;;22.70;36.60;;;;;;1551944;76;856;-64
2022/03/05 04:01:49;;;;;;;;;;;22.80;36.60;;;;;;1553563;75;735;-64
2022/03/05 04:03:50;;;;;;;;;;;22.70;36.80;;;;;;1550553;76;751;-65
2022/03/05 04:05:52;;;;;;;;;;;22.70;36.80;;;;;;1548860;75;765;-63
2022/03/05 04:10:14;;;;;;;;;;;22.80;36.90;;;;;;1553515;76;750;-66
2022/03/05 04:12:16;;;;;;;;;;;22.70;37.00;;;;;;1553571;75;748;-64
2022/03/05 04:14:18;;;;;;;;;;;22.80;37.00;;;;;;1552929;75;723;-65
2022/03/05 04:16:20;;;;;;;;;;;22.70;37.10;;;;;;1556865;76;612;-64
2022/03/05 04:18:22;;;;;;;;;;;22.70;37.40;;;;;;1549147;76;1097;-65
2022/03/05 04:20:24;;;;;;;;;;;22.80;37.40;;;;;;1553198;76;704;-65
2022/03/05 04:22:26;;;;;;;;;;;22.70;37.30;;;;;;1553834;75;850;-63
2022/03/05 04:24:28;;;;;;;;;;;22.70;37.30;;;;;;1553668;75;719;-64
2022/03/05 04:26:30;;;;;;;;;;;22.80;37.30;;;;;;1556591;75;1917;-63
2022/03/05 04:28:31;;;;;;;;;;;22.80;37.30;;;;;;1555917;75;734;-65
2022/03/05 04:30:33;;;;;;;;;;;22.80;37.30;;;;;;1554823;75;689;-67
2022/03/05 04:32:35;;;;;;;;;;;22.80;37.40;;;;;;1553229;75;724;-65
2022/03/05 04:34:37;;;;;;;;;;;22.80;37.40;;;;;;1553575;75;810;-64
2022/03/05 04:36:39;;;;;;;;;;;22.80;37.30;;;;;;1551877;76;1181;-62
2022/03/05 04:38:41;;;;;;;;;;;22.80;37.30;;;;;;1548385;76;785;-65
2022/03/05 04:40:43;;;;;;;;;;;22.90;37.40;;;;;;1553824;75;732;-64
2022/03/05 04:42:45;;;;;;;;;;;22.90;37.40;;;;;;1553571;76;755;-64
2022/03/05 04:44:47;;;;;;;;;;;22.90;37.40;;;;;;1553595;76;737;-64
2022/03/05 04:46:48;;;;;;;;;;;22.90;37.40;;;;;;1551821;76;1992;-65
2022/03/05 04:48:50;;;;;;;;;;;22.90;37.40;;;;;;1553579;75;714;-64
2022/03/05 04:50:52;;;;;;;;;;;22.90;37.30;;;;;;1552645;75;811;-64
2022/03/05 04:52:54;;;;;;;;;;;23.00;37.30;;;;;;1553478;75;779;-64
2022/03/05 04:54:56;;;;;;;;;;;23.00;37.30;;;;;;1553581;76;688;-63
2022/03/05 04:56:58;;;;;;;;;;;22.90;37.40;;;;;;1552738;76;1129;-63
2022/03/05 04:59:00;;;;;;;;;;;23.00;37.30;;;;;;1555267;76;780;-64
2022/03/05 05:01:02;;;;;;;;;;;23.00;37.30;;;;;;1552811;76;727;-63
2022/03/05 05:03:04;;;;;;;;;;;23.00;37.30;;;;;;1553473;75;727;-63
2022/03/05 05:05:07;;;;;;;;;;;23.00;37.30;;;;;;1553820;76;715;-65
2022/03/05 05:07:08;;;;;;;;;;;23.00;37.30;;;;;;1551616;75;1959;-64
2022/03/05 05:09:10;;;;;;;;;;;23.00;37.30;;;;;;1553605;75;785;-63
2022/03/05 05:11:12;;;;;;;;;;;23.00;37.30;;;;;;1552025;76;852;-64
2022/03/05 05:13:14;;;;;;;;;;;23.00;37.30;;;;;;1553537;76;739;-64
2022/03/05 05:15:16;;;;;;;;;;;23.00;37.30;;;;;;1553441;75;792;-61
2022/03/05 05:17:18;;;;;;;;;;;23.00;37.30;;;;;;1550451;76;1186;-63
2022/03/05 05:19:27;;;;;;;;;;;23.00;37.30;;;;;;1570665;75;762;-63
2022/03/05 05:21:29;;;;;;;;;;;23.00;37.30;;;;;;1548764;76;697;-63
2022/03/05 05:23:31;;;;;;;;;;;23.10;37.50;;;;;;1553479;75;728;-63
2022/03/05 05:25:33;;;;;;;;;;;23.10;37.60;;;;;;1553928;75;803;-61
2022/03/05 05:27:35;;;;;;;;;;;23.10;37.50;;;;;;1553273;75;1944;-63
2022/03/05 05:29:37;;;;;;;;;;;23.10;37.50;;;;;;1560274;75;793;-65
2022/03/05 05:31:39;;;;;;;;;;;23.10;37.60;;;;;;1550670;76;740;-67
2022/03/05 05:33:44;;;;;;;;;;;23.10;37.60;;;;;;1553395;75;738;-63
2022/03/05 05:35:45;;;;;;;;;;;23.10;37.50;;;;;;1553883;76;1413;-64
2022/03/05 05:37:46;;;;;;;;;;;23.10;37.60;;;;;;1553486;76;1076;-65
2022/03/05 05:39:48;;;;;;;;;;;23.10;37.60;;;;;;1549137;75;763;-65
2022/03/05 05:41:50;;;;;;;;;;;23.20;37.60;;;;;;1551284;76;670;-64
2022/03/05 05:43:52;;;;;;;;;;;23.20;37.60;;;;;;1553495;75;757;-65
2022/03/05 05:45:54;;;;;;;;;;;23.10;37.50;;;;;;1553606;75;695;-64
2022/03/05 05:47:58;;;;;;;;;;;23.20;37.50;;;;;;1553512;75;1943;-64
2022/03/05 05:50:00;;;;;;;;;;;23.20;37.40;;;;;;1553194;76;811;-64
2022/03/05 05:52:02;;;;;;;;;;;23.30;37.50;;;;;;1551949;76;775;-64
2022/03/05 05:54:04;;;;;;;;;;;23.20;37.30;;;;;;1553499;75;792;-63
2022/03/05 05:56:05;;;;;;;;;;;23.20;37.40;;;;;;1552660;76;812;-64
2022/03/05 05:58:07;;;;;;;;;;;23.30;37.60;;;;;;1553446;76;1137;-65
2022/03/05 06:00:10;;;;;;;;;;;23.30;37.50;;;;;;1553192;75;1039;-65
2022/03/05 06:02:11;;;;;;;;;;;23.30;37.50;;;;;;1552981;75;747;-64
2022/03/05 06:04:13;;;;;;;;;;;23.30;37.40;;;;;;1551273;76;791;-65
2022/03/05 06:06:15;;;;;;;;;;;23.20;37.60;;;;;;1548373;75;805;-64
2022/03/05 06:08:18;;;;;;;;;;;23.20;37.60;;;;;;1553488;75;1921;-65
2022/03/05 06:10:20;;;;;;;;;;;23.30;37.60;;;;;;1553221;76;785;-66
2022/03/05 06:12:22;;;;;;;;;;;23.20;37.50;;;;;;1553520;75;726;-64
2022/03/05 06:14:23;;;;;;;;;;;23.30;37.60;;;;;;1550880;76;784;-64
2022/03/05 06:16:25;;;;;;;;;;;23.30;37.50;;;;;;1553353;75;720;-65
2022/03/05 06:18:27;;;;;;;;;;;23.30;37.60;;;;;;1567264;75;1147;-65
2022/03/05 06:20:29;;;;;;;;;;;23.30;37.60;;;;;;1552241;75;812;-65
2022/03/05 06:22:31;;;;;;;;;;;23.30;37.60;;;;;;1553455;75;673;-62
2022/03/05 06:24:33;;;;;;;;;;;23.30;37.60;;;;;;1550717;76;711;-65
2022/03/05 06:26:35;;;;;;;;;;;23.30;37.80;;;;;;1556528;75;1135;-65
2022/03/05 06:28:37;;;;;;;;;;;23.30;38.00;;;;;;1556490;76;1935;-64
2022/03/05 06:30:39;;;;;;;;;;;23.30;37.80;;;;;;1556908;76;767;-64
2022/03/05 06:32:41;;;;;;;;;;;23.30;37.50;;;;;;1556270;76;692;-68
2022/03/05 06:34:43;;;;;;;;;;;23.30;37.30;;;;;;1556872;76;775;-63
2022/03/05 06:36:45;;;;;;;;;;;23.40;37.30;;;;;;1552630;75;1134;-65
2022/03/05 06:38:47;;;;;;;;;;;23.40;37.30;;;;;;1556827;76;784;-60
2022/03/05 06:40:48;;;;;;;;;;;23.40;37.10;;;;;;1556837;76;758;-63
2022/03/05 06:42:51;;;;;;;;;;;23.40;37.10;;;;;;1556692;76;800;-64
2022/03/05 06:44:53;;;;;;;;;;;23.40;37.00;;;;;;1555995;76;766;-66
2022/03/05 06:46:54;;;;;;;;;;;23.40;36.90;;;;;;1556572;75;1087;-63
2022/03/05 06:48:56;;;;;;;;;;;23.40;36.90;;;;;;1554013;75;1936;-63
2022/03/05 06:50:58;;;;;;;;;;;23.40;36.90;;;;;;1556259;75;739;-64
2022/03/05 06:53:00;;;;;;;;;;;23.40;36.90;;;;;;1556314;76;696;-63
2022/03/05 06:55:03;;;;;;;;;;;23.40;36.90;;;;;;1556515;76;722;-63
2022/03/05 06:57:05;;;;;;;;;;;23.40;36.80;;;;;;1551885;76;1234;-65
2022/03/05 06:59:07;;;;;;;;;;;23.40;36.80;;;;;;1556025;75;692;-64
2022/03/05 07:01:09;;;;;;;;;;;23.40;36.70;;;;;;1555815;75;785;-65
2022/03/05 07:03:11;;;;;;;;;;;23.40;36.70;;;;;;1556272;75;722;-63
2022/03/05 07:05:13;;;;;;;;;;;23.40;36.70;;;;;;1554072;75;710;-62
2022/03/05 07:07:15;;;;;;;;;;;23.40;36.60;;;;;;1554799;76;1155;-59
2022/03/05 07:09:16;;;;;;;;;;;23.50;36.80;;;;;;1551519;75;1936;-62
2022/03/05 07:11:18;;;;;;;;;;;23.50;36.70;;;;;;1550953;76;701;-62
2022/03/05 07:13:20;;;;;;;;;;;23.50;36.60;;;;;;1549316;76;703;-62
2022/03/05 07:15:22;;;;;;;;;;;23.50;36.40;;;;;;1548293;76;714;-62
2022/03/05 07:17:24;;;;;;;;;;;23.50;36.30;;;;;;1549325;75;1177;-62
2022/03/05 07:19:26;;;;;;;;;;;23.50;36.30;;;;;;1546456;75;587;-63
2022/03/05 07:21:28;;;;;;;;;;;23.50;36.30;;;;;;1549491;76;771;-63
2022/03/05 07:23:30;;;;;;;;;;;23.60;36.30;;;;;;1552582;76;722;-62
2022/03/05 07:25:39;;;;;;;;;;;23.60;36.30;;;;;;1546158;75;714;-62
2022/03/05 07:27:39;;;;;;;;;;;23.50;36.20;;;;;;1547879;75;1932;-63
2022/03/05 07:29:43;;;;;;;;;;;23.50;36.20;;;;;;1560032;75;619;-63
2022/03/05 07:31:45;;;;;;;;;;;23.50;36.10;;;;;;1543257;75;1693;-64
2022/03/05 07:33:47;;;;;;;;;;;23.60;36.00;;;;;;1556212;76;837;-64
2022/03/05 07:35:49;;;;;;;;;;;23.50;36.00;;;;;;1547234;76;786;-64
2022/03/05 07:37:51;;;;;;;;;;;23.60;35.90;;;;;;1546160;75;1142;-63
2022/03/05 07:39:53;;;;;;;;;;;23.50;35.80;;;;;;1538014;75;765;-63
2022/03/05 07:41:55;;;;;;;;;;;23.60;35.80;;;;;;1558140;75;696;-65
2022/03/05 07:43:57;;;;;;;;;;;23.50;35.80;;;;;;1558532;75;718;-60
2022/03/05 07:45:59;;;;;;;;;;;23.50;35.70;;;;;;1540866;75;789;-64
2022/03/05 07:48:01;;;;;;;;;;;23.60;35.70;;;;;;1547983;75;1956;-63
2022/03/05 07:50:03;;;;;;;;;;;23.60;35.70;;;;;;1542772;76;792;-64
2022/03/05 07:52:04;;;;;;;;;;;23.60;35.70;;;;;;1549594;76;799;-64
2022/03/05 07:54:06;;;;;;;;;;;23.60;35.70;;;;;;1547651;75;768;-63
2022/03/05 07:56:08;;;;;;;;;;;23.60;35.70;;;;;;1541945;76;774;-63
2022/03/05 07:58:10;;;;;;;;;;;23.60;35.60;;;;;;1549052;73;3009;-76
2022/03/05 08:00:12;;;;;;;;;;;23.60;35.60;;;;;;1540247;75;759;-75
2022/03/05 08:02:17;;;;;;;;;;;23.60;35.60;;;;;;1545477;75;732;-70
2022/03/05 08:04:19;;;;;;;;;;;23.60;35.50;;;;;;1544298;75;847;-71
2022/03/05 08:06:21;;;;;;;;;;;23.60;35.50;;;;;;1546217;75;714;-70
2022/03/05 08:08:23;;;;;;;;;;;23.60;35.50;;;;;;1571727;75;1939;-76
2022/03/05 08:10:25;;;;;;;;;;;23.60;35.50;;;;;;1575297;73;767;-70
2022/03/05 08:12:26;;;;;;;;;;;23.60;35.50;;;;;;1574438;75;712;-69
2022/03/05 08:14:28;;;;;;;;;;;23.60;35.50;;;;;;1579031;75;749;-68
2022/03/05 08:16:31;;;;;;;;;;;23.60;35.50;;;;;;1578470;75;736;-70
2022/03/05 08:18:33;;;;;;;;;;;23.60;35.50;;;;;;1585903;73;1124;-71
2022/03/05 08:20:35;;;;;;;;;;;23.60;35.50;;;;;;1573003;73;718;-72
2022/03/05 08:22:37;;;;;;;;;;;23.60;35.40;;;;;;1578159;75;753;-70
2022/03/05 08:24:40;;;;;;;;;;;23.60;35.30;;;;;;1577027;75;774;-70
2022/03/05 08:26:42;;;;;;;;;;;23.60;35.20;;;;;;1585760;73;738;-73
2022/03/05 08:28:44;;;;;;;;;;;23.60;35.20;;;;;;1581868;75;1941;-70
2022/03/05 08:30:46;;;;;;;;;;;23.60;35.20;;;;;;1577065;75;752;-72
2022/03/05 08:32:48;;;;;;;;;;;23.60;35.10;;;;;;1582652;73;734;-73
2022/03/05 08:34:50;;;;;;;;;;;23.60;35.10;;;;;;1575498;75;782;-66
2022/03/05 08:36:52;;;;;;;;;;;23.60;35.10;;;;;;1586567;75;1140;-68
2022/03/05 08:38:54;;;;;;;;;;;23.60;35.20;;;;;;1580058;75;695;-69
2022/03/05 08:40:55;;;;;;;;;;;23.60;35.20;;;;;;1585427;75;789;-69
2022/03/05 08:42:57;;;;;;;;;;;23.60;35.20;;;;;;1583477;73;800;-69
2022/03/05 08:44:59;;;;;;;;;;;23.60;35.10;;;;;;1584843;75;759;-70
2022/03/05 08:47:01;;;;;;;;;;;23.60;35.20;;;;;;1588806;75;1162;-72
2022/03/05 08:49:03;;;;;;;;;;;23.60;35.20;;;;;;1576967;75;1932;-74
2022/03/05 08:51:05;;;;;;;;;;;23.60;35.20;;;;;;1583720;73;765;-74
2022/03/05 08:53:07;;;;;;;;;;;23.60;35.20;;;;;;1575805;75;729;-70
2022/03/05 08:55:10;;;;;;;;;;;23.60;35.20;;;;;;1580684;75;683;-68
2022/03/05 08:57:11;;;;;;;;;;;23.60;35.20;;;;;;1589105;73;1170;-76
2022/03/05 08:59:13;;;;;;;;;;;23.60;35.20;;;;;;1606541;74;763;-69
2022/03/05 09:01:15;;;;;;;;;;;23.60;35.10;;;;;;1597824;73;779;-67
2022/03/05 09:03:17;;;;;;;;;;;23.60;35.10;;;;;;1613676;74;797;-69
2022/03/05 09:05:19;;;;;;;;;;;23.60;35.20;;;;;;1603485;72;780;-69
2022/03/05 09:07:21;;;;;;;;;;;23.60;35.20;;;;;;1607251;74;1167;-69
2022/03/05 09:09:23;;;;;;;;;;;23.50;35.20;;;;;;1607565;73;1914;-69
2022/03/05 09:11:25;;;;;;;;;;;23.60;35.20;;;;;;1609911;73;720;-70
2022/03/05 09:13:27;;;;;;;;;;;23.60;35.20;;;;;;1605489;72;712;-71
2022/03/05 09:15:29;;;;;;;;;;;23.60;35.20;;;;;;1609410;74;819;-71
2022/03/05 09:17:30;;;;;;;;;;;23.60;35.20;;;;;;1611660;74;1190;-69
2022/03/05 09:19:32;;;;;;;;;;;23.60;35.20;;;;;;1607104;72;732;-71
2022/03/05 09:21:34;;;;;;;;;;;23.60;35.20;;;;;;1606637;74;770;-69
2022/03/05 09:23:36;;;;;;;;;;;23.60;35.20;;;;;;1608335;74;743;-69
2022/03/05 09:25:38;;;;;;;;;;;23.60;35.20;;;;;;1602609;73;746;-69
2022/03/05 09:27:40;;;;;;;;;;;23.60;35.20;;;;;;1598620;74;1108;-68
2022/03/05 09:29:42;;;;;;;;;;;23.60;35.20;;;;;;1600783;72;1925;-69
2022/03/05 09:31:44;;;;;;;;;;;23.60;35.10;;;;;;1604255;74;663;-70
2022/03/05 09:33:46;;;;;;;;;;;23.60;35.10;;;;;;1604929;74;709;-72
2022/03/05 09:35:48;;;;;;;;;;;23.60;35.10;;;;;;1611786;74;715;-69
2022/03/05 09:37:49;;;;;;;;;;;23.60;35.20;;;;;;1605794;72;1146;-69
2022/03/05 09:39:51;;;;;;;;;;;23.60;35.20;;;;;;1599310;73;703;-68
2022/03/05 09:41:54;;;;;;;;;;;23.60;35.20;;;;;;1608976;73;708;-68
2022/03/05 09:43:55;;;;;;;;;;;23.60;35.10;;;;;;1599954;74;718;-69
2022/03/05 09:45:58;;;;;;;;;;;23.60;35.20;;;;;;1608568;72;728;-76
2022/03/05 09:47:59;;;;;;;;;;;23.60;35.20;;;;;;1612026;74;1142;-68
2022/03/05 09:50:03;;;;;;;;;;;23.60;35.20;;;;;;1602968;72;1924;-70
2022/03/05 09:52:05;;;;;;;;;;;23.60;35.20;;;;;;1593799;74;710;-69
2022/03/05 09:54:07;;;;;;;;;;;23.60;35.20;;;;;;1604538;74;872;-75
2022/03/05 09:56:09;;;;;;;;;;;23.60;35.20;;;;;;1613249;74;756;-66
2022/03/05 09:58:11;;;;;;;;;;;23.60;35.20;;;;;;1605357;74;1134;-68
2022/03/05 10:00:13;;;;;;;;;;;23.60;35.20;;;;;;1607435;72;803;-69
2022/03/05 10:02:15;;;;;;;;;;;23.60;35.20;;;;;;1604152;74;770;-69
2022/03/05 10:04:24;;;;;;;;;;;23.60;35.20;;;;;;1612988;74;754;-70
2022/03/05 10:06:29;;;;;;;;;;;23.60;35.20;;;;;;1604411;74;990;-69
2022/03/05 10:08:31;;;;;;;;;;;23.60;35.20;;;;;;1607155;72;1133;-68
2022/03/05 10:10:34;;;;;;;;;;;23.60;35.20;;;;;;1608585;74;1930;-69
2022/03/05 10:12:36;;;;;;;;;;;23.60;35.20;;;;;;1602021;73;1051;-71
2022/03/05 10:14:40;;;;;;;;;;;23.60;35.20;;;;;;1606931;74;746;-71
2022/03/05 10:16:42;;;;;;;;;;;23.70;35.40;;;;;;1589180;72;1669;-68
2022/03/05 10:18:43;;;;;;;;;;;23.60;35.30;;;;;;1601931;73;1106;-65
2022/03/05 10:20:48;;;;;;;;;;;23.60;35.30;;;;;;1607982;72;773;-68
2022/03/05 10:22:57;;;;;;;;;;;23.60;35.40;;;;;;1599930;74;712;-69
2022/03/05 10:24:59;;;;;;;;;;;23.60;35.40;;;;;;1603903;74;770;-70
2022/03/05 10:27:01;;;;;;;;;;;23.70;35.40;;;;;;1599459;72;1138;-68
2022/03/05 10:29:05;;;;;;;;;;;23.70;35.30;;;;;;1601488;74;1909;-68
2022/03/05 10:31:10;;;;;;;;;;;23.80;35.20;;;;;;1603313;74;1835;-70
2022/03/05 10:33:25;;;;;;;;;;;23.80;35.20;;;;;;1603727;74;814;-69
2022/03/05 10:35:27;;;;;;;;;;;23.80;35.20;;;;;;1598945;72;718;-70
2022/03/05 10:37:29;;;;;;;;;;;23.80;35.00;;;;;;1606893;74;1139;-68
2022/03/05 10:39:31;;;;;;;;;;;23.80;35.00;;;;;;1598112;74;780;-67
2022/03/05 10:41:33;;;;;;;;;;;23.90;35.00;;;;;;1600862;74;805;-68
2022/03/05 10:43:35;;;;;;;;;;;23.90;35.00;;;;;;1595571;72;799;-68
2022/03/05 10:45:50;;;;;;;;;;;23.90;34.90;;;;;;1599336;72;675;-70
2022/03/05 10:47:52;;;;;;;;;;;23.90;34.90;;;;;;1595020;73;1113;-70
2022/03/05 10:49:54;;;;;;;;;;;23.90;34.90;;;;;;1604508;72;1932;-72
2022/03/05 10:52:07;;;;;;;;;;;23.90;34.90;;;;;;1603252;74;714;-68
2022/03/05 10:54:10;;;;;;;;;;;23.90;34.90;;;;;;1599795;74;767;-70
2022/03/05 10:56:21;;;;;;;;;;;23.90;35.00;;;;;;1601246;74;754;-71
2022/03/05 10:58:23;;;;;;;;;;;23.90;35.00;;;;;;1599683;72;1172;-68
2022/03/05 11:00:25;;;;;;;;;;;23.90;35.10;;;;;;1604667;74;794;-70
2022/03/05 11:02:27;;;;;;;;;;;23.90;35.20;;;;;;1594408;74;722;-73
2022/03/05 11:04:29;;;;;;;;;;;23.90;35.20;;;;;;1600426;72;779;-71
2022/03/05 11:06:31;;;;;;;;;;;23.90;35.20;;;;;;1603358;74;788;-70
2022/03/05 11:08:33;;;;;;;;;;;23.90;35.20;;;;;;1609966;74;1116;-68
2022/03/05 11:10:35;;;;;;;;;;;23.90;35.20;;;;;;1608560;73;1930;-69
2022/03/05 11:12:38;;;;;;;;;;;23.90;35.20;;;;;;1600404;72;768;-69
2022/03/05 11:14:40;;;;;;;;;;;23.90;35.20;;;;;;1599205;73;768;-72
2022/03/05 11:16:42;;;;;;;;;;;23.90;35.20;;;;;;1600477;73;772;-72
2022/03/05 11:18:44;;;;;;;;;;;23.90;35.30;;;;;;1612423;74;1057;-69
2022/03/05 11:20:47;;;;;;;;;;;24.00;35.30;;;;;;1599572;72;729;-69
2022/03/05 11:22:52;;;;;;;;;;;24.00;35.30;;;;;;1603281;74;722;-68
2022/03/05 11:24:53;;;;;;;;;;;24.00;35.30;;;;;;1601225;74;700;-68
2022/03/05 11:26:55;;;;;;;;;;;24.00;35.40;;;;;;1602665;74;1140;-71
2022/03/05 11:28:57;;;;;;;;;;;23.90;35.40;;;;;;1608157;74;737;-68
2022/03/05 11:30:59;;;;;;;;;;;23.90;35.50;;;;;;1609068;72;1921;-68
2022/03/05 11:33:02;;;;;;;;;;;24.00;35.50;;;;;;1611304;74;719;-68
2022/03/05 11:35:08;;;;;;;;;;;23.90;35.50;;;;;;1607637;73;714;-68
2022/03/05 11:37:15;;;;;;;;;;;23.90;35.50;;;;;;1600904;73;1801;-68
2022/03/05 11:39:20;;;;;;;;;;;24.00;35.50;;;;;;1606437;72;1536;-69
2022/03/05 11:41:28;;;;;;;;;;;23.90;35.50;;;;;;1611558;73;770;-69
2022/03/05 11:43:27;;;;;;;;;;;23.90;35.50;;;;;;1608231;74;1236;-72
2022/03/05 11:45:33;;;;;;;;;;;23.90;35.50;;;;;;1612760;73;741;-68
2022/03/05 11:47:33;;;;;;;;;;;23.90;35.50;;;;;;1607221;74;1250;-72
2022/03/05 11:49:37;;;;;;;;;;;23.90;35.40;;;;;;1608797;72;1898;-68
2022/03/05 11:51:40;;;;;;;;;;;23.90;35.50;;;;;;1605513;74;1630;-68
2022/03/05 11:53:42;;;;;;;;;;;23.90;35.30;;;;;;1595972;73;1581;-72
2022/03/05 11:55:45;;;;;;;;;;;24.00;35.20;;;;;;1613686;74;725;-67
2022/03/05 11:57:54;;;;;;;;;;;24.00;35.10;;;;;;1611057;72;1138;-69
2022/03/05 12:00:02;;;;;;;;;;;24.10;35.20;;;;;;1611965;74;815;-68
2022/03/05 12:02:00;;;;;;;;;;;24.00;35.00;;;;;;1594145;74;1674;-69
2022/03/05 12:04:05;;;;;;;;;;;24.00;35.00;;;;;;1610757;74;727;-68
2022/03/05 12:06:07;;;;;;;;;;;24.00;34.90;;;;;;1608724;72;1984;-72
2022/03/05 12:08:09;;;;;;;;;;;24.00;34.90;;;;;;1613019;74;1105;-68
2022/03/05 12:10:11;;;;;;;;;;;24.00;34.90;;;;;;1607426;74;1932;-73
2022/03/05 12:12:14;;;;;;;;;;;24.10;35.00;;;;;;1606470;74;759;-70